Observation data for Graham on 07/11/2018      Previous  Date       Current Mesonet Observations  Soil Data  Daily Summary Page  Observations in Plain Language
KGHS 110505Z 15007KT 25/16 A3013 RMK A01 T02460163  RH  063%=      5-min Rain = 0
KGHS 110510Z 15006KT 25/16 A3013 RMK A01 T02450163  RH  063%=      5-min Rain = 0
KGHS 110515Z 15006KT 24/16 A3013 RMK A01 T02430163  RH  064%=      5-min Rain = 0
KGHS 110520Z 16006KT 24/16 A3013 RMK A01 T02430164  RH  064%=      5-min Rain = 0
KGHS 110525Z 16007KT 24/16 A3013 RMK A01 T02420164  RH  065%=      5-min Rain = 0
KGHS 110530Z 16007KT 24/17 A3013 RMK A01 T02420166  RH  065%=      5-min Rain = 0
KGHS 110535Z 15008KT 24/17 A3013 RMK A01 T02410166  RH  066%=      5-min Rain = 0
KGHS 110540Z 15006KT 24/17 A3013 RMK A01 T02410166  RH  066%=      5-min Rain = 0
KGHS 110545Z 14007KT 24/17 A3013 RMK A01 T02400166  RH  067%=      5-min Rain = 0
KGHS 110550Z 14006KT 24/17 A3013 RMK A01 T02390167  RH  067%=      5-min Rain = 0
KGHS 110555Z 14006KT 24/17 A3013 RMK A01 T02380167  RH  068%=      5-min Rain = 0
KGHS 110600Z 14006KT 24/17 A3013 RMK A01 T02370167  RH  068%=      5-min Rain = 0
KGHS 110605Z 14005KT 24/17 A3013 RMK A01 T02370167  RH  068%=      5-min Rain = 0
KGHS 110610Z 14005KT 24/17 A3013 RMK A01 T02370167  RH  068%=      5-min Rain = 0
KGHS 110615Z 15005KT 24/17 A3013 RMK A01 T02370167  RH  068%=      5-min Rain = 0
KGHS 110620Z 16006KT 24/17 A3013 RMK A01 T02370168  RH  068%=      5-min Rain = 0
KGHS 110625Z 16005KT 24/17 A3013 RMK A01 T02370168  RH  069%=      5-min Rain = 0
KGHS 110630Z 16006KT 24/17 A3013 RMK A01 T02360168  RH  069%=      5-min Rain = 0
KGHS 110635Z 15005KT 24/17 A3013 RMK A01 T02360169  RH  069%=      5-min Rain = 0
KGHS 110640Z 15005KT 24/17 A3013 RMK A01 T02360169  RH  069%=      5-min Rain = 0
KGHS 110645Z 13004KT 24/17 A3013 RMK A01 T02360169  RH  069%=      5-min Rain = 0
KGHS 110650Z 12005KT 24/17 A3013 RMK A01 T02360169  RH  069%=      5-min Rain = 0
KGHS 110655Z 12005KT 24/17 A3013 RMK A01 T02350169  RH  070%=      5-min Rain = 0
KGHS 110700Z 12005KT 23/17 A3013 RMK A01 T02340169  RH  070%=      5-min Rain = 0
KGHS 110705Z 13006KT 23/17 A3013 RMK A01 T02330169  RH  071%=      5-min Rain = 0
KGHS 110710Z 12005KT 23/17 A3013 RMK A01 T02330169  RH  071%=      5-min Rain = 0
KGHS 110715Z 12004KT 23/17 A3013 RMK A01 T02320169  RH  071%=      5-min Rain = 0
KGHS 110720Z 12004KT 23/17 A3013 RMK A01 T02320170  RH  071%=      5-min Rain = 0
KGHS 110725Z 11004KT 23/17 A3013 RMK A01 T02310170  RH  072%=      5-min Rain = 0
KGHS 110730Z 11004KT 23/17 A3013 RMK A01 T02310170  RH  072%=      5-min Rain = 0
KGHS 110735Z 11004KT 23/17 A3013 RMK A01 T02300170  RH  072%=      5-min Rain = 0
KGHS 110740Z 12004KT 23/17 A3013 RMK A01 T02300170  RH  073%=      5-min Rain = 0
KGHS 110745Z 13003KT 23/17 A3013 RMK A01 T02300170  RH  073%=      5-min Rain = 0
KGHS 110750Z 13003KT 23/17 A3013 RMK A01 T02300171  RH  073%=      5-min Rain = 0
KGHS 110755Z 12003KT 23/17 A3013 RMK A01 T02310171  RH  072%=      5-min Rain = 0
KGHS 110800Z 12003KT 23/17 A3013 RMK A01 T02310171  RH  072%=      5-min Rain = 0
KGHS 110805Z 12003KT 23/17 A3013 RMK A01 T02300171  RH  073%=      5-min Rain = 0
KGHS 110810Z 13003KT 23/17 A3013 RMK A01 T02300171  RH  073%=      5-min Rain = 0
KGHS 110815Z 13003KT 23/17 A3012 RMK A01 T02290171  RH  073%=      5-min Rain = 0
KGHS 110820Z 13003KT 23/17 A3012 RMK A01 T02290171  RH  073%=      5-min Rain = 0
KGHS 110825Z 13002KT 23/17 A3012 RMK A01 T02280171  RH  074%=      5-min Rain = 0
KGHS 110830Z 12003KT 23/17 A3012 RMK A01 T02280171  RH  074%=      5-min Rain = 0
KGHS 110835Z 12003KT 23/17 A3012 RMK A01 T02270171  RH  074%=      5-min Rain = 0
KGHS 110840Z 10002KT 23/17 A3012 RMK A01 T02260171  RH  074%=      5-min Rain = 0
KGHS 110845Z 09003KT 23/17 A3012 RMK A01 T02250171  RH  075%=      5-min Rain = 0
KGHS 110850Z 10003KT 22/17 A3012 RMK A01 T02240171  RH  076%=      5-min Rain = 0
KGHS 110855Z 10002KT 22/17 A3012 RMK A01 T02230171  RH  076%=      5-min Rain = 0
KGHS 110900Z 13001KT 22/17 A3012 RMK A01 T02230172  RH  077%=      5-min Rain = 0
KGHS 110905Z 15001KT 22/17 A3012 RMK A01 T02230172  RH  076%=      5-min Rain = 0
KGHS 110910Z 15001KT 22/17 A3012 RMK A01 T02220172  RH  077%=      5-min Rain = 0
KGHS 110915Z 13001KT 22/17 A3013 RMK A01 T02220172  RH  077%=      5-min Rain = 0
KGHS 110920Z 12002KT 22/17 A3013 RMK A01 T02220172  RH  077%=      5-min Rain = 0
KGHS 110925Z 13003KT 22/17 A3013 RMK A01 T02220172  RH  077%=      5-min Rain = 0
KGHS 110930Z 12003KT 22/17 A3013 RMK A01 T02210172  RH  077%=      5-min Rain = 0
KGHS 110935Z 10003KT 22/17 A3013 RMK A01 T02190172  RH  078%=      5-min Rain = 0
KGHS 110940Z 12003KT 22/17 A3013 RMK A01 T02180172  RH  079%=      5-min Rain = 0
KGHS 110945Z 12003KT 22/17 A3013 RMK A01 T02180172  RH  079%=      5-min Rain = 0
KGHS 110950Z 12004KT 22/17 A3013 RMK A01 T02170172  RH  079%=      5-min Rain = 0
KGHS 110955Z 13004KT 22/17 A3012 RMK A01 T02170172  RH  079%=      5-min Rain = 0
KGHS 111000Z 14004KT 22/17 A3012 RMK A01 T02170172  RH  080%=      5-min Rain = 0
KGHS 111005Z 13003KT 22/17 A3012 RMK A01 T02170172  RH  079%=      5-min Rain = 0
KGHS 111010Z 13003KT 22/17 A3012 RMK A01 T02170171  RH  079%=      5-min Rain = 0
KGHS 111015Z 14004KT 22/17 A3013 RMK A01 T02170170  RH  079%=      5-min Rain = 0
KGHS 111020Z 14004KT 22/17 A3013 RMK A01 T02170168  RH  078%=      5-min Rain = 0
KGHS 111025Z 14004KT 22/17 A3013 RMK A01 T02170168  RH  077%=      5-min Rain = 0
KGHS 111030Z 15004KT 22/17 A3013 RMK A01 T02160168  RH  078%=      5-min Rain = 0
KGHS 111035Z 16005KT 22/17 A3012 RMK A01 T02150167  RH  078%=      5-min Rain = 0
KGHS 111040Z 17006KT 22/16 A3012 RMK A01 T02160161  RH  074%=      5-min Rain = 0
KGHS 111045Z 15005KT 22/16 A3013 RMK A01 T02180163  RH  074%=      5-min Rain = 0
KGHS 111050Z 15005KT 22/16 A3012 RMK A01 T02170162  RH  074%=      5-min Rain = 0
KGHS 111055Z 15006KT 22/16 A3012 RMK A01 T02170164  RH  076%=      5-min Rain = 0
KGHS 111100Z 16005KT 22/16 A3012 RMK A01 T02160163  RH  075%=      5-min Rain = 0
KGHS 111105Z 16005KT 22/16 A3013 RMK A01 T02160161  RH  075%=      5-min Rain = 0
KGHS 111110Z 16004KT 22/16 A3013 RMK A01 T02160163  RH  076%=      5-min Rain = 0
KGHS 111115Z 17005KT 22/16 A3013 RMK A01 T02150164  RH  076%=      5-min Rain = 0
KGHS 111120Z 17005KT 21/16 A3013 RMK A01 T02140164  RH  076%=      5-min Rain = 0
KGHS 111125Z 16005KT 21/16 A3013 RMK A01 T02140163  RH  076%=      5-min Rain = 0
KGHS 111130Z 16005KT 21/16 A3013 RMK A01 T02130161  RH  076%=      5-min Rain = 0
KGHS 111135Z 17005KT 21/16 A3013 RMK A01 T02140155  RH  072%=      5-min Rain = 0
KGHS 111140Z 17005KT 22/15 A3013 RMK A01 T02160154  RH  071%=      5-min Rain = 0
KGHS 111145Z 16005KT 22/15 A3013 RMK A01 T02170153  RH  070%=      5-min Rain = 0
KGHS 111150Z 16004KT 22/15 A3013 RMK A01 T02180153  RH  070%=      5-min Rain = 0
KGHS 111155Z 15005KT 22/15 A3013 RMK A01 T02190153  RH  069%=      5-min Rain = 0
KGHS 111200Z 14004KT 22/15 A3013 RMK A01 T02190154  RH  070%=      5-min Rain = 0
KGHS 111205Z 14005KT 22/15 A3014 RMK A01 T02190154  RH  070%=      5-min Rain = 0
KGHS 111210Z 16004KT 22/16 A3014 RMK A01 T02190155  RH  070%=      5-min Rain = 0
KGHS 111215Z 16004KT 22/16 A3014 RMK A01 T02180155  RH  070%=      5-min Rain = 0
KGHS 111220Z 16005KT 22/15 A3014 RMK A01 T02180154  RH  070%=      5-min Rain = 0
KGHS 111225Z 17005KT 22/15 A3014 RMK A01 T02190154  RH  070%=      5-min Rain = 0
KGHS 111230Z 17004KT 22/16 A3014 RMK A01 T02190155  RH  070%=      5-min Rain = 0
KGHS 111235Z 16004KT 22/16 A3014 RMK A01 T02190155  RH  070%=      5-min Rain = 0
KGHS 111240Z 16004KT 22/16 A3014 RMK A01 T02210156  RH  070%=      5-min Rain = 0
KGHS 111245Z 17004KT 22/16 A3014 RMK A01 T02230157  RH  070%=      5-min Rain = 0
KGHS 111250Z 16004KT 22/16 A3014 RMK A01 T02240157  RH  069%=      5-min Rain = 0
KGHS 111255Z 15004KT 23/16 A3014 RMK A01 T02260159  RH  069%=      5-min Rain = 0
KGHS 111300Z 16005KT 23/16 A3014 RMK A01 T02270160  RH  069%=      5-min Rain = 0
KGHS 111305Z 15005KT 23/16 A3014 RMK A01 T02290161  RH  069%=      5-min Rain = 0
KGHS 111310Z 14005KT 23/16 A3014 RMK A01 T02290161  RH  069%=      5-min Rain = 0
KGHS 111315Z 14006KT 23/16 A3014 RMK A01 T02290162  RH  069%=      5-min Rain = 0
KGHS 111320Z 14007KT 23/16 A3014 RMK A01 T02310163  RH  069%=      5-min Rain = 0
KGHS 111325Z 15007KT 23/16 A3014 RMK A01 T02330163  RH  068%=      5-min Rain = 0
KGHS 111330Z 15008KT 24/16 A3014 RMK A01 T02350164  RH  068%=      5-min Rain = 0
KGHS 111335Z 16009KT 24/17 A3015 RMK A01 T02380165  RH  067%=      5-min Rain = 0
KGHS 111340Z 16008KT 24/17 A3015 RMK A01 T02400167  RH  067%=      5-min Rain = 0
KGHS 111345Z 15008KT 24/17 A3015 RMK A01 T02420167  RH  066%=      5-min Rain = 0
KGHS 111350Z 15007KT 24/17 A3015 RMK A01 T02430169  RH  066%=      5-min Rain = 0
KGHS 111355Z 16008G13KT 25/17 A3015 RMK A01 T02470169  RH  065%=      5-min Rain = 0
KGHS 111400Z 16010G15KT 25/17 A3015 RMK A01 T02500168  RH  063%=      5-min Rain = 0
KGHS 111405Z 16010KT 25/17 A3015 RMK A01 T02540169  RH  063%=      5-min Rain = 0
KGHS 111410Z 17010KT 26/17 A3015 RMK A01 T02570170  RH  062%=      5-min Rain = 0
KGHS 111415Z 17013KT 26/17 A3015 RMK A01 T02580169  RH  061%=      5-min Rain = 0
KGHS 111420Z 17012KT 26/17 A3015 RMK A01 T02590169  RH  061%=      5-min Rain = 0
KGHS 111425Z 18011G20KT 26/17 A3015 RMK A01 T02600168  RH  060%=      5-min Rain = 0
KGHS 111430Z 18010G15KT 26/17 A3015 RMK A01 T02600169  RH  060%=      5-min Rain = 0
KGHS 111435Z 18011G17KT 26/17 A3015 RMK A01 T02600168  RH  060%=      5-min Rain = 0
KGHS 111440Z 17012KT 26/17 A3015 RMK A01 T02590168  RH  060%=      5-min Rain = 0
KGHS 111445Z 18012KT 26/17 A3015 RMK A01 T02620168  RH  059%=      5-min Rain = 0
KGHS 111450Z 18011G16KT 26/17 A3015 RMK A01 T02630167  RH  059%=      5-min Rain = 0
KGHS 111455Z 19011KT 27/17 A3015 RMK A01 T02650166  RH  057%=      5-min Rain = 0
KGHS 111500Z 17010KT 27/17 A3014 RMK A01 T02690168  RH  057%=      5-min Rain = 0
KGHS 111505Z 18010KT 27/17 A3014 RMK A01 T02730167  RH  055%=      5-min Rain = 0
KGHS 111510Z 17012G17KT 27/17 A3014 RMK A01 T02740166  RH  054%=      5-min Rain = 0
KGHS 111515Z 18011G16KT 27/16 A3014 RMK A01 T02740164  RH  054%=      5-min Rain = 0
KGHS 111520Z 18010KT 28/17 A3014 RMK A01 T02760165  RH  053%=      5-min Rain = 0
KGHS 111525Z 17010KT 28/17 A3014 RMK A01 T02800165  RH  052%=      5-min Rain = 0
KGHS 111530Z 17010G15KT 28/16 A3014 RMK A01 T02840164  RH  051%=      5-min Rain = 0
KGHS 111535Z 18012KT 28/16 A3014 RMK A01 T02840162  RH  050%=      5-min Rain = 0
KGHS 111540Z 18011G17KT 29/16 A3014 RMK A01 T02850164  RH  050%=      5-min Rain = 0
KGHS 111545Z 18012G17KT 29/16 A3014 RMK A01 T02870163  RH  049%=      5-min Rain = 0
KGHS 111550Z 19011KT 29/16 A3014 RMK A01 T02870162  RH  049%=      5-min Rain = 0
KGHS 111555Z 19011G16KT 29/16 A3014 RMK A01 T02870162  RH  049%=      5-min Rain = 0
KGHS 111600Z 17011G18KT 29/16 A3014 RMK A01 T02900162  RH  048%=      5-min Rain = 0
KGHS 111605Z 18013KT 29/16 A3014 RMK A01 T02900161  RH  048%=      5-min Rain = 0
KGHS 111610Z 18010G15KT 29/16 A3014 RMK A01 T02910160  RH  047%=      5-min Rain = 0
KGHS 111615Z 18010G17KT 29/16 A3014 RMK A01 T02940159  RH  046%=      5-min Rain = 0
KGHS 111620Z 17011KT 30/16 A3014 RMK A01 T02960159  RH  046%=      5-min Rain = 0
KGHS 111625Z 19010G18KT 29/16 A3014 RMK A01 T02930160  RH  047%=      5-min Rain = 0
KGHS 111630Z 15011G17KT 30/16 A3014 RMK A01 T02960160  RH  046%=      5-min Rain = 0
KGHS 111635Z 17011G16KT 30/16 A3014 RMK A01 T02970155  RH  044%=      5-min Rain = 0
KGHS 111640Z 17012G17KT 30/15 A3014 RMK A01 T02970151  RH  043%=      5-min Rain = 0
KGHS 111645Z 18012G19KT 30/15 A3014 RMK A01 T03000150  RH  042%=      5-min Rain = 0
KGHS 111650Z 15011KT 30/15 A3013 RMK A01 T03010153  RH  042%=      5-min Rain = 0
KGHS 111655Z 17010G16KT 30/15 A3013 RMK A01 T03040151  RH  041%=      5-min Rain = 0
KGHS 111700Z 17015KT 31/14 A3013 RMK A01 T03050144  RH  039%=      5-min Rain = 0
KGHS 111705Z 17012KT 30/15 A3013 RMK A01 T03030145  RH  040%=      5-min Rain = 0
KGHS 111710Z 14014KT 31/14 A3013 RMK A01 T03060142  RH  039%=      5-min Rain = 0
KGHS 111715Z 16013G18KT 31/14 A3013 RMK A01 T03060144  RH  039%=      5-min Rain = 0
KGHS 111720Z 15015G22KT 31/14 A3013 RMK A01 T03100139  RH  037%=      5-min Rain = 0
KGHS 111725Z 16015G22KT 31/14 A3013 RMK A01 T03120139  RH  036%=      5-min Rain = 0
KGHS 111730Z 16015G21KT 31/14 A3013 RMK A01 T03080138  RH  037%=      5-min Rain = 0
KGHS 111735Z 16014G21KT 31/14 A3013 RMK A01 T03090136  RH  036%=      5-min Rain = 0
KGHS 111740Z 17016G23KT 31/13 A3012 RMK A01 T03060129  RH  035%=      5-min Rain = 0
KGHS 111745Z 17016G24KT 31/13 A3012 RMK A01 T03080129  RH  035%=      5-min Rain = 0
KGHS 111750Z 16015G21KT 31/13 A3012 RMK A01 T03090131  RH  035%=      5-min Rain = 0
KGHS 111755Z 15017G23KT 31/13 A3012 RMK A01 T03080134  RH  036%=      5-min Rain = 0
KGHS 111800Z 16018G25KT 31/13 A3011 RMK A01 T03090127  RH  034%=      5-min Rain = 0
KGHS 111805Z 16017G24KT 31/12 A3011 RMK A01 T03120122  RH  032%=      5-min Rain = 0
KGHS 111810Z 15017G22KT 32/12 A3011 RMK A01 T03180123  RH  032%=      5-min Rain = 0
KGHS 111815Z 17015G21KT 31/12 A3011 RMK A01 T03140116  RH  031%=      5-min Rain = 0
KGHS 111820Z 17013G18KT 31/12 A3011 RMK A01 T03120116  RH  031%=      5-min Rain = 0
KGHS 111825Z 15015G22KT 32/12 A301 RMK A01 T03170119  RH  031%=      5-min Rain = 0
KGHS 111830Z 16016G22KT 32/12 A301 RMK A01 T03200120  RH  031%=      5-min Rain = 0
KGHS 111835Z 17016G25KT 32/12 A301 RMK A01 T03190120  RH  031%=      5-min Rain = 0
KGHS 111840Z 14014G19KT 32/12 A301 RMK A01 T03200120  RH  031%=      5-min Rain = 0
KGHS 111845Z 15017G24KT 32/12 A301 RMK A01 T03220116  RH  029%=      5-min Rain = 0
KGHS 111850Z 15020G26KT 32/11 A3009 RMK A01 T03200114  RH  029%=      5-min Rain = 0
KGHS 111855Z 17020G27KT 32/11 A3009 RMK A01 T03230113  RH  029%=      5-min Rain = 0
KGHS 111900Z 15018G25KT 32/11 A3009 RMK A01 T03240111  RH  028%=      5-min Rain = 0
KGHS 111905Z 16018G27KT 32/11 A3009 RMK A01 T03230110  RH  028%=      5-min Rain = 0
KGHS 111910Z 15020G26KT 32/11 A3009 RMK A01 T03240107  RH  027%=      5-min Rain = 0
KGHS 111915Z 15017KT 33/11 A3009 RMK A01 T03250110  RH  028%=      5-min Rain = 0
KGHS 111920Z 17015G27KT 33/11 A3008 RMK A01 T03300109  RH  027%=      5-min Rain = 0
KGHS 111925Z 16017G22KT 33/10 A3008 RMK A01 T03310104  RH  026%=      5-min Rain = 0
KGHS 111930Z 16016G24KT 33/10 A3008 RMK A01 T03290103  RH  026%=      5-min Rain = 0
KGHS 111935Z 14017G26KT 33/10 A3008 RMK A01 T03290104  RH  026%=      5-min Rain = 0
KGHS 111940Z 16019G25KT 33/10 A3007 RMK A01 T03290104  RH  026%=      5-min Rain = 0
KGHS 111945Z 15016G22KT 33/11 A3007 RMK A01 T03310106  RH  026%=      5-min Rain = 0
KGHS 111950Z 15015G25KT 33/11 A3007 RMK A01 T03300106  RH  026%=      5-min Rain = 0
KGHS 111955Z 14019G28KT 33/10 A3006 RMK A01 T03280104  RH  026%=      5-min Rain = 0
KGHS 112000Z 16015G24KT 33/11 A3007 RMK A01 T03300108  RH  027%=      5-min Rain = 0
KGHS 112005Z 16015G20KT 33/11 A3006 RMK A01 T03300111  RH  027%=      5-min Rain = 0
KGHS 112010Z 16016G24KT 33/12 A3006 RMK A01 T03320115  RH  028%=      5-min Rain = 0
KGHS 112015Z 16016G25KT 33/12 A3005 RMK A01 T03310117  RH  028%=      5-min Rain = 0
KGHS 112020Z 17013G18KT 33/12 A3005 RMK A01 T03290118  RH  029%=      5-min Rain = 0
KGHS 112025Z 16016G28KT 33/12 A3005 RMK A01 T03280117  RH  029%=      5-min Rain = 0
KGHS 112030Z 16017G25KT 33/12 A3005 RMK A01 T03270116  RH  029%=      5-min Rain = 0
KGHS 112035Z 16017G25KT 33/12 A3005 RMK A01 T03290116  RH  028%=      5-min Rain = 0
KGHS 112040Z 15017G22KT 33/12 A3005 RMK A01 T03290117  RH  028%=      5-min Rain = 0
KGHS 112045Z 15014G26KT 33/12 A3005 RMK A01 T03290116  RH  028%=      5-min Rain = 0
KGHS 112050Z 15015G21KT 33/12 A3005 RMK A01 T03280116  RH  028%=      5-min Rain = 0
KGHS 112055Z 15016G23KT 33/11 A3004 RMK A01 T03300114  RH  028%=      5-min Rain = 0
KGHS 112100Z 16019G30KT 33/11 A3004 RMK A01 T03290113  RH  028%=      5-min Rain = 0
KGHS 112105Z 16014KT 33/11 A3004 RMK A01 T03270113  RH  028%=      5-min Rain = 0
KGHS 112110Z 17016G24KT 33/11 A3003 RMK A01 T03300112  RH  027%=      5-min Rain = 0
KGHS 112115Z 15016G26KT 34/12 A3003 RMK A01 T03360115  RH  027%=      5-min Rain = 0
KGHS 112120Z 14013G19KT 33/11 A3003 RMK A01 T03340114  RH  027%=      5-min Rain = 0
KGHS 112125Z 16016G23KT 33/11 A3003 RMK A01 T03340114  RH  027%=      5-min Rain = 0
KGHS 112130Z 15017G25KT 34/11 A3002 RMK A01 T03360113  RH  027%=      5-min Rain = 0
KGHS 112135Z 15015G22KT 34/12 A3002 RMK A01 T03370115  RH  027%=      5-min Rain = 0
KGHS 112140Z 15015G21KT 34/12 A3002 RMK A01 T03350115  RH  027%=      5-min Rain = 0
KGHS 112145Z 16013G18KT 33/12 A3002 RMK A01 T03310116  RH  028%=      5-min Rain = 0
KGHS 112150Z 15015G20KT 33/11 A3002 RMK A01 T03340114  RH  027%=      5-min Rain = 0
KGHS 112155Z 15014KT 34/12 A3001 RMK A01 T03380117  RH  027%=      5-min Rain = 0
KGHS 112200Z 15013G20KT 34/12 A3002 RMK A01 T03350117  RH  028%=      5-min Rain = 0
KGHS 112205Z 15013KT 33/12 A3002 RMK A01 T03320117  RH  028%=      5-min Rain = 0
KGHS 112210Z 15015G23KT 33/12 A3001 RMK A01 T03330119  RH  028%=      5-min Rain = 0
KGHS 112215Z 18019G25KT 34/12 A3001 RMK A01 T03350119  RH  028%=      5-min Rain = 0
KGHS 112220Z 18016G22KT 33/12 A3001 RMK A01 T03290118  RH  029%=      5-min Rain = 0
KGHS 112225Z 18014G19KT 33/12 A3001 RMK A01 T03310117  RH  028%=      5-min Rain = 0
KGHS 112230Z 17013G18KT 33/12 A3001 RMK A01 T03300117  RH  028%=      5-min Rain = 0
KGHS 112235Z 16014G21KT 33/12 A3001 RMK A01 T03290118  RH  029%=      5-min Rain = 0
KGHS 112240Z 16014G20KT 33/12 A3001 RMK A01 T03300118  RH  029%=      5-min Rain = 0
KGHS 112245Z 15016G24KT 33/12 A30 RMK A01 T03310116  RH  028%=      5-min Rain = 0
KGHS 112250Z 16017G23KT 33/12 A30 RMK A01 T03330116  RH  028%=      5-min Rain = 0
KGHS 112255Z 15013G19KT 33/12 A3001 RMK A01 T03320117  RH  028%=      5-min Rain = 0
KGHS 112300Z 14014KT 33/12 A3001 RMK A01 T03310118  RH  028%=      5-min Rain = 0
KGHS 112305Z 15014G19KT 33/12 A3001 RMK A01 T03340117  RH  028%=      5-min Rain = 0
KGHS 112310Z 17014KT 34/11 A3001 RMK A01 T03360114  RH  027%=      5-min Rain = 0
KGHS 112315Z 17015KT 34/11 A30 RMK A01 T03350113  RH  027%=      5-min Rain = 0
KGHS 112320Z 17017KT 34/11 A30 RMK A01 T03350114  RH  027%=      5-min Rain = 0
KGHS 112325Z 17013G19KT 33/12 A30 RMK A01 T03340115  RH  027%=      5-min Rain = 0
KGHS 112330Z 16013G19KT 33/12 A30 RMK A01 T03330116  RH  028%=      5-min Rain = 0
KGHS 112335Z 16014KT 33/12 A30 RMK A01 T03310116  RH  028%=      5-min Rain = 0
KGHS 112340Z 16016G21KT 33/12 A30 RMK A01 T03300116  RH  028%=      5-min Rain = 0
KGHS 112345Z 15015G20KT 33/12 A30 RMK A01 T03280116  RH  028%=      5-min Rain = 0
KGHS 112350Z 14013KT 33/12 A30 RMK A01 T03260116  RH  029%=      5-min Rain = 0
KGHS 112355Z 15014KT 33/12 A30 RMK A01 T03260117  RH  029%=      5-min Rain = 0
KGHS 120000Z 16014KT 33/12 A30 RMK A01 T03250117  RH  029%=      5-min Rain = 0
KGHS 120005Z 16012G17KT 32/12 A30 RMK A01 T03240117  RH  029%=      5-min Rain = 0
KGHS 120010Z 15014KT 32/12 A30 RMK A01 T03230116  RH  029%=      5-min Rain = 0
KGHS 120015Z 15014KT 32/12 A30 RMK A01 T03220115  RH  029%=      5-min Rain = 0
KGHS 120020Z 15013KT 32/12 A30 RMK A01 T03210117  RH  030%=      5-min Rain = 0
KGHS 120025Z 15013G19KT 32/12 A30 RMK A01 T03210117  RH  030%=      5-min Rain = 0
KGHS 120030Z 15013KT 32/12 A30 RMK A01 T03200118  RH  030%=      5-min Rain = 0
KGHS 120035Z 15013KT 32/12 A30 RMK A01 T03190118  RH  030%=      5-min Rain = 0
KGHS 120040Z 15013KT 32/12 A30 RMK A01 T03190117  RH  030%=      5-min Rain = 0
KGHS 120045Z 14012KT 32/12 A30 RMK A01 T03180119  RH  031%=      5-min Rain = 0
KGHS 120050Z 14010KT 32/12 A3001 RMK A01 T03170120  RH  031%=      5-min Rain = 0
KGHS 120055Z 15009KT 32/12 A3001 RMK A01 T03160120  RH  031%=      5-min Rain = 0
KGHS 120100Z 15010KT 32/12 A3001 RMK A01 T03150120  RH  031%=      5-min Rain = 0
KGHS 120105Z 15012KT 32/12 A3001 RMK A01 T03150119  RH  031%=      5-min Rain = 0
KGHS 120110Z 15011KT 32/12 A3002 RMK A01 T03150119  RH  031%=      5-min Rain = 0
KGHS 120115Z 15010KT 32/12 A3002 RMK A01 T03150119  RH  031%=      5-min Rain = 0
KGHS 120120Z 15009KT 31/12 A3002 RMK A01 T03140120  RH  032%=      5-min Rain = 0
KGHS 120125Z 15009KT 31/12 A3002 RMK A01 T03130120  RH  032%=      5-min Rain = 0
KGHS 120130Z 14010KT 31/12 A3001 RMK A01 T03120121  RH  032%=      5-min Rain = 0
KGHS 120135Z 14010G15KT 31/12 A3002 RMK A01 T03110122  RH  033%=      5-min Rain = 0
KGHS 120140Z 14011KT 31/12 A3002 RMK A01 T03100122  RH  033%=      5-min Rain = 0
KGHS 120145Z 14010G15KT 31/12 A3002 RMK A01 T03090123  RH  033%=      5-min Rain = 0
KGHS 120150Z 14010KT 31/12 A3002 RMK A01 T03080123  RH  033%=      5-min Rain = 0
KGHS 120155Z 14011KT 31/12 A3002 RMK A01 T03060123  RH  034%=      5-min Rain = 0
KGHS 120200Z 14010KT 31/12 A3002 RMK A01 T03050124  RH  034%=      5-min Rain = 0
KGHS 120205Z 14010KT 30/13 A3002 RMK A01 T03030125  RH  035%=      5-min Rain = 0
KGHS 120210Z 14010KT 30/13 A3003 RMK A01 T03020125  RH  035%=      5-min Rain = 0
KGHS 120215Z 15009KT 30/13 A3003 RMK A01 T03000126  RH  036%=      5-min Rain = 0
KGHS 120220Z 15009KT 30/13 A3003 RMK A01 T02990126  RH  036%=      5-min Rain = 0
KGHS 120225Z 15009KT 30/13 A3003 RMK A01 T02970127  RH  037%=      5-min Rain = 0
KGHS 120230Z 14008KT 30/13 A3004 RMK A01 T02960128  RH  037%=      5-min Rain = 0
KGHS 120235Z 14008KT 29/13 A3004 RMK A01 T02940129  RH  038%=      5-min Rain = 0
KGHS 120240Z 13008KT 29/13 A3004 RMK A01 T02930129  RH  038%=      5-min Rain = 0
KGHS 120245Z 13008KT 29/13 A3004 RMK A01 T02920129  RH  038%=      5-min Rain = 0
KGHS 120250Z 13008KT 29/13 A3004 RMK A01 T02920129  RH  038%=      5-min Rain = 0
KGHS 120255Z 13008KT 29/13 A3005 RMK A01 T02920129  RH  038%=      5-min Rain = 0
KGHS 120300Z 14007KT 29/13 A3005 RMK A01 T02920129  RH  038%=      5-min Rain = 0
KGHS 120305Z 14007KT 29/13 A3005 RMK A01 T02900130  RH  039%=      5-min Rain = 0
KGHS 120310Z 14007KT 29/13 A3005 RMK A01 T02890130  RH  039%=      5-min Rain = 0
KGHS 120315Z 14008KT 29/13 A3005 RMK A01 T02890129  RH  039%=      5-min Rain = 0
KGHS 120320Z 14008KT 29/13 A3005 RMK A01 T02890129  RH  039%=      5-min Rain = 0
KGHS 120325Z 14008KT 29/13 A3006 RMK A01 T02890129  RH  039%=      5-min Rain = 0
KGHS 120330Z 14007KT 29/13 A3006 RMK A01 T02890129  RH  039%=      5-min Rain = 0
KGHS 120335Z 14007KT 29/13 A3006 RMK A01 T02880129  RH  039%=      5-min Rain = 0
KGHS 120340Z 14007KT 29/13 A3006 RMK A01 T02870130  RH  040%=      5-min Rain = 0
KGHS 120345Z 14008KT 29/13 A3006 RMK A01 T02860131  RH  040%=      5-min Rain = 0
KGHS 120350Z 14008KT 29/13 A3007 RMK A01 T02850131  RH  040%=      5-min Rain = 0
KGHS 120355Z 14008KT 29/13 A3007 RMK A01 T02850130  RH  040%=      5-min Rain = 0
KGHS 120400Z 14008KT 28/13 A3007 RMK A01 T02840130  RH  040%=      5-min Rain = 0
KGHS 120405Z 14008KT 28/13 A3007 RMK A01 T02840130  RH  040%=      5-min Rain = 0
KGHS 120410Z 14008KT 28/13 A3007 RMK A01 T02830130  RH  040%=      5-min Rain = 0
KGHS 120415Z 14007KT 28/13 A3007 RMK A01 T02830129  RH  040%=      5-min Rain = 0
KGHS 120420Z 14007KT 28/13 A3007 RMK A01 T02830129  RH  040%=      5-min Rain = 0
KGHS 120425Z 14006KT 28/13 A3007 RMK A01 T02830129  RH  040%=      5-min Rain = 0
KGHS 120430Z 14006KT 28/13 A3007 RMK A01 T02830129  RH  040%=      5-min Rain = 0
KGHS 120435Z 13006KT 28/13 A3007 RMK A01 T02830128  RH  040%=      5-min Rain = 0
KGHS 120440Z 13005KT 28/13 A3007 RMK A01 T02830128  RH  040%=      5-min Rain = 0
KGHS 120445Z 13005KT 28/13 A3007 RMK A01 T02830128  RH  040%=      5-min Rain = 0
KGHS 120450Z 13005KT 28/13 A3008 RMK A01 T02820128  RH  040%=      5-min Rain = 0
KGHS 120455Z 12005KT 28/13 A3008 RMK A01 T02810128  RH  040%=      5-min Rain = 0
KGHS 120500Z 13005KT 28/13 A3008 RMK A01 T02800128  RH  041%=      5-min Rain = 0

Page generated in 0.0088 seconds.